MUAT weather

Antilla Airport
Antilla, HolguĂ­n, Cuba

Public forecast

Using degrees Celsius for public forecast. Weather courtesy of forecast.io.

METAR (pilot weather report)

Closest report is Frank Pais International Airport, 32.8 nm (60.8 km) W. Retrieved 2019/05/26 09:50 UTC (38 minutes ago):

MUHG 260950Z 10004KT 060V120 8000 FEW020 BKN200 23/22 Q1015

TAF (pilot weather forecast)

Closest forecast is Frank Pais International Airport, 32.8 nm (60.8 km) W. Retrieved 2019/05/26 06:03 UTC (4 hours ago):

TAF MUHG 260500Z 2606/2706 10008KT 9000 SCT020 BECMG 2615/2617 12010KT TEMPO 2618/2624 5000 TSRA SCT018CB BKN020 BECMG 2702/2704 VRB03KT